ETHS

Fassberg Airport

Germany
METAR ETHS 172220Z 34007KT 9999 BKN076 20/13 Q1015 BLU
Observed Flight Rules
Jul-17 @ 22:20 UTC (an hour ago) Visual Flight Rules
Wind Visibility Clouds
340° at 7 knots 10,000+ meters
  • Broken at 7,600' AGL
Temperatures Readings
Current 20°C / 68°F
Dewpoint 13°C / 55°F
Humidity 64%
Altimeter 29.97" Hg
Pressure 1015 hPa
Elevation 88
METAR ETHS 172220Z 34007KT 9999 BKN076 20/13 Q1015 BLU
Observed Flight Rules
Jul-17 @ 22:20 UTC
(an hour ago)
VFR
Wind Visibility
340° at 7 knots 10,000+ meters
Clouds
  • Broken at 7,600' AGL
Temperature Dewpoint
20°C / 68°F 13°C / 55°F
Humidity Altimeter Pressure
64% 29.97" Hg 1015 hPa